sensor_id;sensor_type;location;lat;lon;timestamp;P1;durP1;ratioP1;P2;durP2;ratioP2
15228;SDS011;7717;47.792;12.076;2023-05-02T00:02:20;2.93;;;2.73;;
15228;SDS011;7717;47.792;12.076;2023-05-02T00:04:46;4.70;;;3.00;;
15228;SDS011;7717;47.792;12.076;2023-05-02T00:07:11;3.30;;;3.00;;
15228;SDS011;7717;47.792;12.076;2023-05-02T00:09:36;3.70;;;2.90;;
15228;SDS011;7717;47.792;12.076;2023-05-02T00:12:02;3.07;;;2.77;;
15228;SDS011;7717;47.792;12.076;2023-05-02T00:14:28;3.57;;;2.57;;
15228;SDS011;7717;47.792;12.076;2023-05-02T00:16:53;3.20;;;2.97;;
15228;SDS011;7717;47.792;12.076;2023-05-02T00:19:19;3.07;;;2.87;;
15228;SDS011;7717;47.792;12.076;2023-05-02T00:21:46;2.60;;;2.40;;
15228;SDS011;7717;47.792;12.076;2023-05-02T00:24:11;3.33;;;3.03;;
15228;SDS011;7717;47.792;12.076;2023-05-02T00:26:36;3.20;;;3.00;;
15228;SDS011;7717;47.792;12.076;2023-05-02T00:29:02;3.25;;;3.00;;
15228;SDS011;7717;47.792;12.076;2023-05-02T00:31:27;3.80;;;3.40;;
15228;SDS011;7717;47.792;12.076;2023-05-02T00:33:52;4.03;;;3.33;;
15228;SDS011;7717;47.792;12.076;2023-05-02T00:36:18;3.43;;;3.13;;
15228;SDS011;7717;47.792;12.076;2023-05-02T00:38:44;3.47;;;3.17;;
15228;SDS011;7717;47.792;12.076;2023-05-02T00:41:09;3.13;;;2.93;;
15228;SDS011;7717;47.792;12.076;2023-05-02T00:43:34;3.17;;;2.97;;
15228;SDS011;7717;47.792;12.076;2023-05-02T00:46:00;2.80;;;2.60;;
15228;SDS011;7717;47.792;12.076;2023-05-02T00:48:26;2.57;;;2.37;;
15228;SDS011;7717;47.792;12.076;2023-05-02T00:50:51;2.60;;;2.40;;
15228;SDS011;7717;47.792;12.076;2023-05-02T00:53:17;2.43;;;2.23;;
15228;SDS011;7717;47.792;12.076;2023-05-02T00:55:42;2.70;;;2.50;;
15228;SDS011;7717;47.792;12.076;2023-05-02T00:58:10;2.60;;;2.40;;
15228;SDS011;7717;47.792;12.076;2023-05-02T01:06:18;2.33;;;2.13;;
15228;SDS011;7717;47.792;12.076;2023-05-02T01:09:09;2.47;;;2.27;;
15228;SDS011;7717;47.792;12.076;2023-05-02T01:11:41;2.83;;;2.17;;
15228;SDS011;7717;47.792;12.076;2023-05-02T01:14:07;2.40;;;2.20;;
15228;SDS011;7717;47.792;12.076;2023-05-02T01:16:33;1.90;;;1.80;;
15228;SDS011;7717;47.792;12.076;2023-05-02T01:19:01;2.00;;;1.90;;
15228;SDS011;7717;47.792;12.076;2023-05-02T01:21:29;2.60;;;1.90;;
15228;SDS011;7717;47.792;12.076;2023-05-02T01:23:59;1.77;;;1.67;;
15228;SDS011;7717;47.792;12.076;2023-05-02T01:26:40;2.07;;;1.93;;
15228;SDS011;7717;47.792;12.076;2023-05-02T01:29:08;1.43;;;1.40;;
15228;SDS011;7717;47.792;12.076;2023-05-02T01:31:37;1.63;;;1.53;;
15228;SDS011;7717;47.792;12.076;2023-05-02T01:34:04;1.40;;;1.30;;
15228;SDS011;7717;47.792;12.076;2023-05-02T01:36:30;1.70;;;1.60;;
15228;SDS011;7717;47.792;12.076;2023-05-02T01:38:57;1.40;;;1.30;;
15228;SDS011;7717;47.792;12.076;2023-05-02T01:41:26;1.53;;;1.43;;
15228;SDS011;7717;47.792;12.076;2023-05-02T01:43:54;1.67;;;1.57;;
15228;SDS011;7717;47.792;12.076;2023-05-02T01:46:20;1.60;;;1.50;;
15228;SDS011;7717;47.792;12.076;2023-05-02T01:48:46;2.63;;;2.10;;
15228;SDS011;7717;47.792;12.076;2023-05-02T01:51:13;1.87;;;1.60;;
15228;SDS011;7717;47.792;12.076;2023-05-02T01:53:41;1.60;;;1.50;;
15228;SDS011;7717;47.792;12.076;2023-05-02T01:56:06;2.07;;;1.70;;
15228;SDS011;7717;47.792;12.076;2023-05-02T01:58:32;1.80;;;1.70;;
15228;SDS011;7717;47.792;12.076;2023-05-02T02:00:59;1.50;;;1.40;;
15228;SDS011;7717;47.792;12.076;2023-05-02T02:03:25;1.63;;;1.53;;
15228;SDS011;7717;47.792;12.076;2023-05-02T02:05:50;1.70;;;1.60;;
15228;SDS011;7717;47.792;12.076;2023-05-02T02:08:16;3.87;;;1.60;;
15228;SDS011;7717;47.792;12.076;2023-05-02T02:10:43;3.37;;;1.60;;
15228;SDS011;7717;47.792;12.076;2023-05-02T02:15:53;1.60;;;1.50;;
15228;SDS011;7717;47.792;12.076;2023-05-02T02:18:21;1.57;;;1.47;;
15228;SDS011;7717;47.792;12.076;2023-05-02T02:20:49;1.70;;;1.60;;
15228;SDS011;7717;47.792;12.076;2023-05-02T02:23:15;1.03;;;1.03;;
15228;SDS011;7717;47.792;12.076;2023-05-02T02:25:40;1.77;;;1.67;;
15228;SDS011;7717;47.792;12.076;2023-05-02T02:28:06;1.70;;;1.60;;
15228;SDS011;7717;47.792;12.076;2023-05-02T02:30:31;1.53;;;1.43;;
15228;SDS011;7717;47.792;12.076;2023-05-02T02:32:57;2.37;;;1.23;;
15228;SDS011;7717;47.792;12.076;2023-05-02T02:35:22;1.50;;;1.40;;
15228;SDS011;7717;47.792;12.076;2023-05-02T02:40:40;1.50;;;1.40;;
15228;SDS011;7717;47.792;12.076;2023-05-02T02:49:06;1.53;;;1.43;;
15228;SDS011;7717;47.792;12.076;2023-05-02T02:51:12;1.47;;;1.37;;
15228;SDS011;7717;47.792;12.076;2023-05-02T02:56:12;2.03;;;1.83;;
15228;SDS011;7717;47.792;12.076;2023-05-02T03:01:05;1.57;;;1.47;;
15228;SDS011;7717;47.792;12.076;2023-05-02T03:03:32;1.60;;;1.50;;
15228;SDS011;7717;47.792;12.076;2023-05-02T03:05:58;1.60;;;1.50;;
15228;SDS011;7717;47.792;12.076;2023-05-02T03:08:24;1.47;;;1.37;;
15228;SDS011;7717;47.792;12.076;2023-05-02T03:10:49;1.30;;;1.20;;
15228;SDS011;7717;47.792;12.076;2023-05-02T03:13:15;1.47;;;1.37;;
15228;SDS011;7717;47.792;12.076;2023-05-02T03:16:00;1.30;;;1.20;;
15228;SDS011;7717;47.792;12.076;2023-05-02T03:18:30;2.87;;;1.20;;
15228;SDS011;7717;47.792;12.076;2023-05-02T03:20:55;1.50;;;1.40;;
15228;SDS011;7717;47.792;12.076;2023-05-02T03:23:21;1.40;;;1.30;;
15228;SDS011;7717;47.792;12.076;2023-05-02T03:25:46;1.50;;;1.40;;
15228;SDS011;7717;47.792;12.076;2023-05-02T03:28:12;1.80;;;1.70;;
15228;SDS011;7717;47.792;12.076;2023-05-02T03:30:38;1.43;;;1.33;;
15228;SDS011;7717;47.792;12.076;2023-05-02T03:33:04;2.13;;;1.40;;
15228;SDS011;7717;47.792;12.076;2023-05-02T03:35:31;1.30;;;1.20;;
15228;SDS011;7717;47.792;12.076;2023-05-02T03:37:56;1.90;;;1.33;;
15228;SDS011;7717;47.792;12.076;2023-05-02T03:40:22;2.40;;;1.37;;
15228;SDS011;7717;47.792;12.076;2023-05-02T03:42:47;3.10;;;1.50;;
15228;SDS011;7717;47.792;12.076;2023-05-02T03:45:12;1.67;;;1.13;;
15228;SDS011;7717;47.792;12.076;2023-05-02T03:47:38;3.37;;;1.60;;
15228;SDS011;7717;47.792;12.076;2023-05-02T03:50:03;1.70;;;1.60;;
15228;SDS011;7717;47.792;12.076;2023-05-02T03:52:28;1.70;;;1.60;;
15228;SDS011;7717;47.792;12.076;2023-05-02T03:54:54;1.60;;;1.50;;
15228;SDS011;7717;47.792;12.076;2023-05-02T03:57:19;3.10;;;2.00;;
15228;SDS011;7717;47.792;12.076;2023-05-02T03:59:45;1.63;;;1.53;;
15228;SDS011;7717;47.792;12.076;2023-05-02T04:02:11;3.00;;;1.83;;
15228;SDS011;7717;47.792;12.076;2023-05-02T04:04:36;1.90;;;1.80;;
15228;SDS011;7717;47.792;12.076;2023-05-02T04:07:02;1.60;;;1.50;;
15228;SDS011;7717;47.792;12.076;2023-05-02T04:09:27;1.57;;;1.47;;
15228;SDS011;7717;47.792;12.076;2023-05-02T04:11:53;1.60;;;1.50;;
15228;SDS011;7717;47.792;12.076;2023-05-02T04:14:18;3.15;;;1.50;;
15228;SDS011;7717;47.792;12.076;2023-05-02T04:16:50;4.00;;;1.63;;
15228;SDS011;7717;47.792;12.076;2023-05-02T04:19:16;1.70;;;1.60;;
15228;SDS011;7717;47.792;12.076;2023-05-02T04:21:42;1.87;;;1.77;;
15228;SDS011;7717;47.792;12.076;2023-05-02T04:24:08;1.80;;;1.60;;
15228;SDS011;7717;47.792;12.076;2023-05-02T04:26:33;1.63;;;1.53;;
15228;SDS011;7717;47.792;12.076;2023-05-02T04:28:58;2.20;;;1.70;;
15228;SDS011;7717;47.792;12.076;2023-05-02T04:31:23;1.80;;;1.70;;
15228;SDS011;7717;47.792;12.076;2023-05-02T04:33:48;2.73;;;2.00;;
15228;SDS011;7717;47.792;12.076;2023-05-02T04:36:14;1.80;;;1.70;;
15228;SDS011;7717;47.792;12.076;2023-05-02T04:38:40;1.90;;;1.70;;
15228;SDS011;7717;47.792;12.076;2023-05-02T04:41:05;1.50;;;1.40;;
15228;SDS011;7717;47.792;12.076;2023-05-02T04:43:30;2.17;;;1.80;;
15228;SDS011;7717;47.792;12.076;2023-05-02T04:45:56;1.80;;;1.70;;
15228;SDS011;7717;47.792;12.076;2023-05-02T04:48:22;2.67;;;1.90;;
15228;SDS011;7717;47.792;12.076;2023-05-02T04:50:49;2.17;;;1.97;;
15228;SDS011;7717;47.792;12.076;2023-05-02T04:53:14;1.97;;;1.87;;
15228;SDS011;7717;47.792;12.076;2023-05-02T04:55:39;1.93;;;1.83;;
15228;SDS011;7717;47.792;12.076;2023-05-02T04:58:05;2.53;;;1.70;;
15228;SDS011;7717;47.792;12.076;2023-05-02T05:00:30;1.67;;;1.50;;
15228;SDS011;7717;47.792;12.076;2023-05-02T05:02:55;1.80;;;1.70;;
15228;SDS011;7717;47.792;12.076;2023-05-02T05:05:21;3.10;;;1.90;;
15228;SDS011;7717;47.792;12.076;2023-05-02T05:07:46;2.67;;;1.90;;
15228;SDS011;7717;47.792;12.076;2023-05-02T05:10:11;1.83;;;1.73;;
15228;SDS011;7717;47.792;12.076;2023-05-02T05:12:37;1.97;;;1.73;;
15228;SDS011;7717;47.792;12.076;2023-05-02T05:15:02;2.43;;;2.23;;
15228;SDS011;7717;47.792;12.076;2023-05-02T05:17:27;2.93;;;1.60;;
15228;SDS011;7717;47.792;12.076;2023-05-02T05:19:53;1.70;;;1.60;;
15228;SDS011;7717;47.792;12.076;2023-05-02T05:22:18;1.77;;;1.67;;
15228;SDS011;7717;47.792;12.076;2023-05-02T05:24:49;2.33;;;2.10;;
15228;SDS011;7717;47.792;12.076;2023-05-02T05:27:15;1.90;;;1.80;;
15228;SDS011;7717;47.792;12.076;2023-05-02T05:29:40;2.93;;;2.60;;
15228;SDS011;7717;47.792;12.076;2023-05-02T05:32:05;5.00;;;3.43;;
15228;SDS011;7717;47.792;12.076;2023-05-02T05:34:30;5.23;;;3.90;;
15228;SDS011;7717;47.792;12.076;2023-05-02T05:36:56;3.83;;;3.50;;
15228;SDS011;7717;47.792;12.076;2023-05-02T05:39:21;3.83;;;3.50;;
15228;SDS011;7717;47.792;12.076;2023-05-02T05:41:46;3.63;;;3.07;;
15228;SDS011;7717;47.792;12.076;2023-05-02T05:44:12;3.73;;;2.93;;
15228;SDS011;7717;47.792;12.076;2023-05-02T05:46:37;3.53;;;2.90;;
15228;SDS011;7717;47.792;12.076;2023-05-02T05:49:02;2.93;;;2.27;;
15228;SDS011;7717;47.792;12.076;2023-05-02T05:51:27;5.53;;;3.27;;
15228;SDS011;7717;47.792;12.076;2023-05-02T05:53:53;5.77;;;3.53;;
15228;SDS011;7717;47.792;12.076;2023-05-02T05:56:18;6.07;;;4.17;;
15228;SDS011;7717;47.792;12.076;2023-05-02T05:58:43;4.27;;;3.50;;
15228;SDS011;7717;47.792;12.076;2023-05-02T06:01:08;4.37;;;3.47;;
15228;SDS011;7717;47.792;12.076;2023-05-02T06:03:34;3.80;;;3.40;;
15228;SDS011;7717;47.792;12.076;2023-05-02T06:05:59;4.40;;;2.97;;
15228;SDS011;7717;47.792;12.076;2023-05-02T06:08:24;3.83;;;2.97;;
15228;SDS011;7717;47.792;12.076;2023-05-02T06:10:49;2.93;;;2.63;;
15228;SDS011;7717;47.792;12.076;2023-05-02T06:13:14;2.10;;;1.90;;
15228;SDS011;7717;47.792;12.076;2023-05-02T06:15:40;2.10;;;1.90;;
15228;SDS011;7717;47.792;12.076;2023-05-02T06:18:05;1.90;;;1.80;;
15228;SDS011;7717;47.792;12.076;2023-05-02T06:20:31;2.30;;;2.10;;
15228;SDS011;7717;47.792;12.076;2023-05-02T06:22:56;3.77;;;1.87;;
15228;SDS011;7717;47.792;12.076;2023-05-02T06:25:21;3.23;;;2.00;;
15228;SDS011;7717;47.792;12.076;2023-05-02T06:27:46;2.20;;;2.00;;
15228;SDS011;7717;47.792;12.076;2023-05-02T06:30:12;2.00;;;1.90;;
15228;SDS011;7717;47.792;12.076;2023-05-02T06:32:37;2.33;;;1.87;;
15228;SDS011;7717;47.792;12.076;2023-05-02T06:35:02;3.00;;;2.70;;
15228;SDS011;7717;47.792;12.076;2023-05-02T06:37:31;3.10;;;2.87;;
15228;SDS011;7717;47.792;12.076;2023-05-02T06:39:57;2.63;;;2.43;;
15228;SDS011;7717;47.792;12.076;2023-05-02T06:42:22;2.30;;;1.90;;
15228;SDS011;7717;47.792;12.076;2023-05-02T06:44:47;2.30;;;2.10;;
15228;SDS011;7717;47.792;12.076;2023-05-02T06:47:15;2.27;;;2.07;;
15228;SDS011;7717;47.792;12.076;2023-05-02T06:49:40;1.97;;;1.87;;
15228;SDS011;7717;47.792;12.076;2023-05-02T06:52:05;2.57;;;2.37;;
15228;SDS011;7717;47.792;12.076;2023-05-02T06:54:31;2.30;;;2.17;;
15228;SDS011;7717;47.792;12.076;2023-05-02T06:56:56;2.67;;;2.00;;
15228;SDS011;7717;47.792;12.076;2023-05-02T06:59:21;2.67;;;2.17;;
15228;SDS011;7717;47.792;12.076;2023-05-02T07:01:46;3.03;;;1.83;;
15228;SDS011;7717;47.792;12.076;2023-05-02T07:04:12;1.90;;;1.80;;
15228;SDS011;7717;47.792;12.076;2023-05-02T07:06:37;1.90;;;1.80;;
15228;SDS011;7717;47.792;12.076;2023-05-02T07:09:02;1.90;;;1.80;;
15228;SDS011;7717;47.792;12.076;2023-05-02T07:11:27;2.10;;;1.90;;
15228;SDS011;7717;47.792;12.076;2023-05-02T07:13:53;1.77;;;1.67;;
15228;SDS011;7717;47.792;12.076;2023-05-02T07:16:18;3.07;;;2.20;;
15228;SDS011;7717;47.792;12.076;2023-05-02T07:18:44;2.00;;;1.50;;
15228;SDS011;7717;47.792;12.076;2023-05-02T07:21:12;1.53;;;1.43;;
15228;SDS011;7717;47.792;12.076;2023-05-02T07:23:37;1.50;;;1.40;;
15228;SDS011;7717;47.792;12.076;2023-05-02T07:26:02;1.33;;;1.30;;
15228;SDS011;7717;47.792;12.076;2023-05-02T07:28:28;1.63;;;1.50;;
15228;SDS011;7717;47.792;12.076;2023-05-02T07:30:54;2.90;;;1.37;;
15228;SDS011;7717;47.792;12.076;2023-05-02T07:33:19;1.60;;;1.50;;
15228;SDS011;7717;47.792;12.076;2023-05-02T07:35:44;1.73;;;1.60;;
15228;SDS011;7717;47.792;12.076;2023-05-02T07:38:09;1.70;;;1.60;;
15228;SDS011;7717;47.792;12.076;2023-05-02T07:40:35;1.50;;;1.40;;
15228;SDS011;7717;47.792;12.076;2023-05-02T07:43:00;1.67;;;1.57;;
15228;SDS011;7717;47.792;12.076;2023-05-02T07:45:26;1.27;;;1.27;;
15228;SDS011;7717;47.792;12.076;2023-05-02T07:47:51;2.23;;;1.50;;
15228;SDS011;7717;47.792;12.076;2023-05-02T07:50:16;1.60;;;1.30;;
15228;SDS011;7717;47.792;12.076;2023-05-02T07:52:41;1.97;;;1.83;;
15228;SDS011;7717;47.792;12.076;2023-05-02T07:55:07;1.43;;;1.33;;
15228;SDS011;7717;47.792;12.076;2023-05-02T07:57:32;1.47;;;1.40;;
15228;SDS011;7717;47.792;12.076;2023-05-02T07:59:57;1.90;;;1.80;;
15228;SDS011;7717;47.792;12.076;2023-05-02T08:02:23;1.40;;;1.33;;
15228;SDS011;7717;47.792;12.076;2023-05-02T08:04:50;1.50;;;1.40;;
15228;SDS011;7717;47.792;12.076;2023-05-02T08:07:15;1.70;;;1.60;;
15228;SDS011;7717;47.792;12.076;2023-05-02T08:09:40;1.90;;;1.80;;
15228;SDS011;7717;47.792;12.076;2023-05-02T08:12:06;2.27;;;1.57;;
15228;SDS011;7717;47.792;12.076;2023-05-02T08:14:31;1.70;;;1.60;;
15228;SDS011;7717;47.792;12.076;2023-05-02T08:16:57;1.77;;;1.67;;
15228;SDS011;7717;47.792;12.076;2023-05-02T08:19:22;1.80;;;1.70;;
15228;SDS011;7717;47.792;12.076;2023-05-02T08:21:47;2.13;;;1.63;;
15228;SDS011;7717;47.792;12.076;2023-05-02T08:24:13;3.53;;;2.23;;
15228;SDS011;7717;47.792;12.076;2023-05-02T08:26:38;1.90;;;1.80;;
15228;SDS011;7717;47.792;12.076;2023-05-02T08:29:03;1.80;;;1.70;;
15228;SDS011;7717;47.792;12.076;2023-05-02T08:31:29;3.00;;;2.80;;
15228;SDS011;7717;47.792;12.076;2023-05-02T08:33:54;2.20;;;2.10;;
15228;SDS011;7717;47.792;12.076;2023-05-02T08:36:20;1.90;;;1.80;;
15228;SDS011;7717;47.792;12.076;2023-05-02T08:38:45;2.60;;;2.40;;
15228;SDS011;7717;47.792;12.076;2023-05-02T08:41:11;1.70;;;1.60;;
15228;SDS011;7717;47.792;12.076;2023-05-02T08:43:38;2.00;;;1.47;;
15228;SDS011;7717;47.792;12.076;2023-05-02T08:46:03;1.90;;;1.80;;
15228;SDS011;7717;47.792;12.076;2023-05-02T08:48:31;2.03;;;1.93;;
15228;SDS011;7717;47.792;12.076;2023-05-02T08:50:57;2.37;;;2.17;;
15228;SDS011;7717;47.792;12.076;2023-05-02T08:53:23;1.80;;;1.70;;
15228;SDS011;7717;47.792;12.076;2023-05-02T08:55:48;1.97;;;1.83;;
15228;SDS011;7717;47.792;12.076;2023-05-02T08:58:14;2.03;;;1.80;;
15228;SDS011;7717;47.792;12.076;2023-05-02T09:00:40;1.73;;;1.50;;
15228;SDS011;7717;47.792;12.076;2023-05-02T09:05:40;1.60;;;1.50;;
15228;SDS011;7717;47.792;12.076;2023-05-02T09:08:06;1.70;;;1.60;;
15228;SDS011;7717;47.792;12.076;2023-05-02T09:10:31;4.90;;;3.00;;
15228;SDS011;7717;47.792;12.076;2023-05-02T09:13:01;4.37;;;2.60;;
15228;SDS011;7717;47.792;12.076;2023-05-02T09:15:44;1.70;;;1.60;;
15228;SDS011;7717;47.792;12.076;2023-05-02T09:18:20;1.90;;;1.80;;
15228;SDS011;7717;47.792;12.076;2023-05-02T09:20:47;2.10;;;1.90;;
15228;SDS011;7717;47.792;12.076;2023-05-02T09:23:12;2.10;;;1.97;;
15228;SDS011;7717;47.792;12.076;2023-05-02T09:25:38;1.80;;;1.70;;
15228;SDS011;7717;47.792;12.076;2023-05-02T09:28:03;2.50;;;1.80;;
15228;SDS011;7717;47.792;12.076;2023-05-02T09:30:29;1.50;;;1.40;;
15228;SDS011;7717;47.792;12.076;2023-05-02T09:32:54;1.87;;;1.70;;
15228;SDS011;7717;47.792;12.076;2023-05-02T09:35:19;1.77;;;1.67;;
15228;SDS011;7717;47.792;12.076;2023-05-02T09:37:52;2.33;;;2.13;;
15228;SDS011;7717;47.792;12.076;2023-05-02T09:40:17;2.43;;;2.23;;
15228;SDS011;7717;47.792;12.076;2023-05-02T09:42:44;2.63;;;2.00;;
15228;SDS011;7717;47.792;12.076;2023-05-02T09:45:18;2.07;;;1.87;;
15228;SDS011;7717;47.792;12.076;2023-05-02T09:47:43;2.17;;;1.80;;
15228;SDS011;7717;47.792;12.076;2023-05-02T09:50:09;2.27;;;2.17;;
15228;SDS011;7717;47.792;12.076;2023-05-02T09:52:35;2.13;;;1.93;;
15228;SDS011;7717;47.792;12.076;2023-05-02T09:55:00;1.90;;;1.80;;
15228;SDS011;7717;47.792;12.076;2023-05-02T09:57:38;2.37;;;2.17;;
15228;SDS011;7717;47.792;12.076;2023-05-02T10:00:05;2.67;;;2.10;;
15228;SDS011;7717;47.792;12.076;2023-05-02T10:02:31;2.67;;;2.30;;
15228;SDS011;7717;47.792;12.076;2023-05-02T10:04:57;2.53;;;2.33;;
15228;SDS011;7717;47.792;12.076;2023-05-02T10:07:23;2.13;;;2.03;;
15228;SDS011;7717;47.792;12.076;2023-05-02T10:09:49;3.20;;;2.60;;
15228;SDS011;7717;47.792;12.076;2023-05-02T10:12:17;2.30;;;2.10;;
15228;SDS011;7717;47.792;12.076;2023-05-02T10:14:46;2.80;;;2.60;;
15228;SDS011;7717;47.792;12.076;2023-05-02T10:19:40;2.43;;;2.23;;
15228;SDS011;7717;47.792;12.076;2023-05-02T10:22:07;3.63;;;2.87;;
15228;SDS011;7717;47.792;12.076;2023-05-02T10:24:32;2.30;;;2.10;;
15228;SDS011;7717;47.792;12.076;2023-05-02T10:26:58;2.80;;;2.30;;
15228;SDS011;7717;47.792;12.076;2023-05-02T10:29:24;2.27;;;2.07;;
15228;SDS011;7717;47.792;12.076;2023-05-02T10:31:50;2.40;;;2.20;;
15228;SDS011;7717;47.792;12.076;2023-05-02T10:34:16;3.47;;;3.10;;
15228;SDS011;7717;47.792;12.076;2023-05-02T10:36:42;3.10;;;2.77;;
15228;SDS011;7717;47.792;12.076;2023-05-02T10:39:07;3.00;;;2.70;;
15228;SDS011;7717;47.792;12.076;2023-05-02T10:41:33;2.80;;;2.60;;
15228;SDS011;7717;47.792;12.076;2023-05-02T10:43:59;3.40;;;3.10;;
15228;SDS011;7717;47.792;12.076;2023-05-02T10:49:04;3.10;;;2.90;;
15228;SDS011;7717;47.792;12.076;2023-05-02T10:51:30;3.25;;;2.90;;
15228;SDS011;7717;47.792;12.076;2023-05-02T11:01:55;3.33;;;3.03;;
15228;SDS011;7717;47.792;12.076;2023-05-02T11:04:21;3.73;;;3.43;;
15228;SDS011;7717;47.792;12.076;2023-05-02T11:11:46;3.77;;;3.47;;
15228;SDS011;7717;47.792;12.076;2023-05-02T11:24:43;4.53;;;3.00;;
15228;SDS011;7717;47.792;12.076;2023-05-02T11:30:02;3.33;;;2.90;;
15228;SDS011;7717;47.792;12.076;2023-05-02T11:35:15;2.97;;;2.77;;
15228;SDS011;7717;47.792;12.076;2023-05-02T11:37:41;2.97;;;2.77;;
15228;SDS011;7717;47.792;12.076;2023-05-02T11:40:10;5.67;;;4.57;;
15228;SDS011;7717;47.792;12.076;2023-05-02T11:42:35;4.80;;;3.47;;
15228;SDS011;7717;47.792;12.076;2023-05-02T11:45:01;4.27;;;3.87;;
15228;SDS011;7717;47.792;12.076;2023-05-02T11:47:26;4.10;;;3.40;;
15228;SDS011;7717;47.792;12.076;2023-05-02T11:49:54;4.10;;;3.10;;
15228;SDS011;7717;47.792;12.076;2023-05-02T11:52:19;3.90;;;3.13;;
15228;SDS011;7717;47.792;12.076;2023-05-02T11:54:44;4.50;;;4.03;;
15228;SDS011;7717;47.792;12.076;2023-05-02T11:57:10;3.77;;;3.50;;
15228;SDS011;7717;47.792;12.076;2023-05-02T11:59:51;3.07;;;2.87;;
15228;SDS011;7717;47.792;12.076;2023-05-02T12:02:17;3.53;;;3.00;;
15228;SDS011;7717;47.792;12.076;2023-05-02T12:04:42;3.03;;;2.83;;
15228;SDS011;7717;47.792;12.076;2023-05-02T12:07:10;3.17;;;2.87;;
15228;SDS011;7717;47.792;12.076;2023-05-02T12:09:35;3.40;;;3.10;;
15228;SDS011;7717;47.792;12.076;2023-05-02T12:12:00;4.13;;;3.23;;
15228;SDS011;7717;47.792;12.076;2023-05-02T12:14:30;3.63;;;3.33;;
15228;SDS011;7717;47.792;12.076;2023-05-02T12:16:57;3.70;;;3.40;;
15228;SDS011;7717;47.792;12.076;2023-05-02T12:19:23;4.87;;;4.37;;
15228;SDS011;7717;47.792;12.076;2023-05-02T12:21:48;4.40;;;3.43;;
15228;SDS011;7717;47.792;12.076;2023-05-02T12:24:14;3.30;;;3.00;;
15228;SDS011;7717;47.792;12.076;2023-05-02T12:26:40;3.10;;;2.90;;
15228;SDS011;7717;47.792;12.076;2023-05-02T12:29:05;4.13;;;3.20;;
15228;SDS011;7717;47.792;12.076;2023-05-02T12:31:32;2.60;;;2.40;;
15228;SDS011;7717;47.792;12.076;2023-05-02T12:33:57;2.90;;;2.70;;
15228;SDS011;7717;47.792;12.076;2023-05-02T12:36:24;4.03;;;2.80;;
15228;SDS011;7717;47.792;12.076;2023-05-02T12:38:53;3.17;;;2.70;;
15228;SDS011;7717;47.792;12.076;2023-05-02T12:41:36;3.20;;;2.90;;
15228;SDS011;7717;47.792;12.076;2023-05-02T12:44:02;4.50;;;3.03;;
15228;SDS011;7717;47.792;12.076;2023-05-02T12:46:27;2.83;;;2.63;;
15228;SDS011;7717;47.792;12.076;2023-05-02T12:49:03;3.30;;;3.00;;
15228;SDS011;7717;47.792;12.076;2023-05-02T12:51:29;3.57;;;3.27;;
15228;SDS011;7717;47.792;12.076;2023-05-02T12:53:55;3.50;;;2.57;;
15228;SDS011;7717;47.792;12.076;2023-05-02T12:56:20;3.40;;;3.10;;
15228;SDS011;7717;47.792;12.076;2023-05-02T12:58:47;3.00;;;2.67;;
15228;SDS011;7717;47.792;12.076;2023-05-02T13:01:12;3.57;;;3.30;;
15228;SDS011;7717;47.792;12.076;2023-05-02T13:03:38;3.87;;;3.47;;
15228;SDS011;7717;47.792;12.076;2023-05-02T13:06:03;3.73;;;3.43;;
15228;SDS011;7717;47.792;12.076;2023-05-02T13:08:29;4.03;;;3.37;;
15228;SDS011;7717;47.792;12.076;2023-05-02T13:10:54;3.93;;;3.53;;
15228;SDS011;7717;47.792;12.076;2023-05-02T13:13:19;4.30;;;4.00;;
15228;SDS011;7717;47.792;12.076;2023-05-02T13:15:45;4.30;;;3.73;;
15228;SDS011;7717;47.792;12.076;2023-05-02T13:18:11;5.53;;;3.80;;
15228;SDS011;7717;47.792;12.076;2023-05-02T13:20:36;4.27;;;3.63;;
15228;SDS011;7717;47.792;12.076;2023-05-02T13:23:01;3.67;;;3.37;;
15228;SDS011;7717;47.792;12.076;2023-05-02T13:25:26;3.70;;;3.40;;
15228;SDS011;7717;47.792;12.076;2023-05-02T13:27:52;4.17;;;3.50;;
15228;SDS011;7717;47.792;12.076;2023-05-02T13:30:17;3.93;;;3.67;;
15228;SDS011;7717;47.792;12.076;2023-05-02T13:32:42;4.23;;;3.83;;
15228;SDS011;7717;47.792;12.076;2023-05-02T13:35:08;4.17;;;3.80;;
15228;SDS011;7717;47.792;12.076;2023-05-02T13:37:33;4.40;;;4.00;;
15228;SDS011;7717;47.792;12.076;2023-05-02T13:39:58;5.10;;;4.60;;
15228;SDS011;7717;47.792;12.076;2023-05-02T13:42:24;4.87;;;4.37;;
15228;SDS011;7717;47.792;12.076;2023-05-02T13:44:49;3.40;;;3.10;;
15228;SDS011;7717;47.792;12.076;2023-05-02T13:47:15;3.60;;;3.30;;
15228;SDS011;7717;47.792;12.076;2023-05-02T13:49:40;3.93;;;3.43;;
15228;SDS011;7717;47.792;12.076;2023-05-02T13:52:05;3.27;;;2.80;;
15228;SDS011;7717;47.792;12.076;2023-05-02T13:54:31;3.13;;;2.90;;
15228;SDS011;7717;47.792;12.076;2023-05-02T13:56:56;3.30;;;3.00;;
15228;SDS011;7717;47.792;12.076;2023-05-02T13:59:22;2.60;;;2.40;;
15228;SDS011;7717;47.792;12.076;2023-05-02T14:01:47;4.10;;;2.87;;
15228;SDS011;7717;47.792;12.076;2023-05-02T14:04:13;3.23;;;2.93;;
15228;SDS011;7717;47.792;12.076;2023-05-02T14:06:38;4.20;;;3.33;;
15228;SDS011;7717;47.792;12.076;2023-05-02T14:09:03;3.47;;;3.17;;
15228;SDS011;7717;47.792;12.076;2023-05-02T14:11:28;3.40;;;3.10;;
15228;SDS011;7717;47.792;12.076;2023-05-02T14:13:54;3.93;;;3.53;;
15228;SDS011;7717;47.792;12.076;2023-05-02T14:16:21;3.90;;;3.60;;
15228;SDS011;7717;47.792;12.076;2023-05-02T14:18:46;3.50;;;3.20;;
15228;SDS011;7717;47.792;12.076;2023-05-02T14:21:14;3.57;;;3.27;;
15228;SDS011;7717;47.792;12.076;2023-05-02T14:23:39;3.40;;;3.10;;
15228;SDS011;7717;47.792;12.076;2023-05-02T14:26:04;4.20;;;3.80;;
15228;SDS011;7717;47.792;12.076;2023-05-02T14:28:29;3.40;;;3.10;;
15228;SDS011;7717;47.792;12.076;2023-05-02T14:30:56;4.23;;;3.30;;
15228;SDS011;7717;47.792;12.076;2023-05-02T14:33:21;3.30;;;3.10;;
15228;SDS011;7717;47.792;12.076;2023-05-02T14:35:47;3.63;;;3.33;;
15228;SDS011;7717;47.792;12.076;2023-05-02T14:38:12;2.90;;;2.70;;
15228;SDS011;7717;47.792;12.076;2023-05-02T14:40:37;2.80;;;2.60;;
15228;SDS011;7717;47.792;12.076;2023-05-02T14:43:03;2.40;;;2.30;;
15228;SDS011;7717;47.792;12.076;2023-05-02T14:45:28;2.50;;;2.30;;
15228;SDS011;7717;47.792;12.076;2023-05-02T14:47:54;2.23;;;2.13;;
15228;SDS011;7717;47.792;12.076;2023-05-02T14:50:21;2.70;;;2.50;;
15228;SDS011;7717;47.792;12.076;2023-05-02T14:52:46;3.03;;;2.37;;
15228;SDS011;7717;47.792;12.076;2023-05-02T14:55:11;3.17;;;2.87;;
15228;SDS011;7717;47.792;12.076;2023-05-02T14:57:37;2.80;;;2.60;;
15228;SDS011;7717;47.792;12.076;2023-05-02T15:00:03;4.30;;;3.07;;
15228;SDS011;7717;47.792;12.076;2023-05-02T15:02:28;4.43;;;4.03;;
15228;SDS011;7717;47.792;12.076;2023-05-02T15:04:54;4.40;;;4.10;;
15228;SDS011;7717;47.792;12.076;2023-05-02T15:07:19;4.80;;;4.40;;
15228;SDS011;7717;47.792;12.076;2023-05-02T15:09:45;5.67;;;4.40;;
15228;SDS011;7717;47.792;12.076;2023-05-02T15:12:10;4.40;;;4.00;;
15228;SDS011;7717;47.792;12.076;2023-05-02T15:14:36;6.43;;;4.40;;
15228;SDS011;7717;47.792;12.076;2023-05-02T15:17:01;7.77;;;6.17;;
15228;SDS011;7717;47.792;12.076;2023-05-02T15:19:26;8.10;;;7.40;;
15228;SDS011;7717;47.792;12.076;2023-05-02T15:21:52;8.43;;;7.63;;
15228;SDS011;7717;47.792;12.076;2023-05-02T15:24:17;8.27;;;7.57;;
15228;SDS011;7717;47.792;12.076;2023-05-02T15:26:43;6.00;;;4.97;;
15228;SDS011;7717;47.792;12.076;2023-05-02T15:29:09;11.50;;;10.40;;
15228;SDS011;7717;47.792;12.076;2023-05-02T15:31:35;12.23;;;11.03;;
15228;SDS011;7717;47.792;12.076;2023-05-02T15:34:01;7.83;;;7.23;;
15228;SDS011;7717;47.792;12.076;2023-05-02T15:36:26;7.37;;;6.67;;
15228;SDS011;7717;47.792;12.076;2023-05-02T15:38:53;15.97;;;13.73;;
15228;SDS011;7717;47.792;12.076;2023-05-02T15:41:18;8.13;;;7.43;;